createdAt,value
2022-11-17T00:04:47.901Z,2.53
2022-11-17T00:09:50.952Z,3.17
2022-11-17T00:14:53.923Z,2.90
2022-11-17T00:20:15.804Z,2.75
2022-11-17T00:25:19.099Z,3.55
2022-11-17T00:30:42.501Z,2.47
2022-11-17T00:35:53.044Z,2.17
2022-11-17T00:40:56.043Z,3.50
2022-11-17T00:45:58.965Z,2.25
2022-11-17T00:51:06.437Z,1.73
2022-11-17T00:56:09.437Z,1.98
2022-11-17T01:01:12.764Z,1.92
2022-11-17T01:06:19.460Z,1.90
2022-11-17T01:11:22.451Z,2.30
2022-11-17T01:16:26.384Z,1.67
2022-11-17T01:21:32.789Z,2.03
2022-11-17T01:26:37.762Z,2.05
2022-11-17T01:31:43.344Z,1.60
2022-11-17T01:37:05.250Z,4.25
2022-11-17T01:42:14.724Z,1.50
2022-11-17T01:47:21.980Z,2.05
2022-11-17T01:52:27.053Z,2.95
2022-11-17T01:57:34.105Z,2.47
2022-11-17T02:02:39.587Z,3.35
2022-11-17T02:07:45.765Z,2.15
2022-11-17T02:12:49.650Z,2.40
2022-11-17T02:17:54.218Z,2.35
2022-11-17T02:23:19.713Z,1.95
2022-11-17T02:28:27.360Z,1.98
2022-11-17T02:33:39.489Z,3.25
2022-11-17T02:38:50.996Z,1.90
2022-11-17T02:44:04.704Z,2.45
2022-11-17T02:49:13.473Z,2.85
2022-11-17T02:54:17.599Z,2.22
2022-11-17T02:59:26.660Z,2.70
2022-11-17T03:04:34.857Z,1.80
2022-11-17T03:09:47.753Z,2.22
2022-11-17T03:15:02.316Z,1.92
2022-11-17T03:20:13.521Z,2.38
2022-11-17T03:25:20.848Z,2.92
2022-11-17T03:30:26.089Z,3.35
2022-11-17T03:35:34.729Z,2.00
2022-11-17T03:40:42.051Z,2.05
2022-11-17T03:45:49.230Z,2.47
2022-11-17T03:50:59.166Z,1.35
2022-11-17T03:56:08.626Z,2.50
2022-11-17T04:01:14.004Z,2.03
2022-11-17T04:06:16.980Z,1.40
2022-11-17T04:11:37.564Z,1.50
2022-11-17T04:16:42.008Z,1.60
2022-11-17T04:21:45.009Z,1.75
2022-11-17T04:27:05.502Z,2.10
2022-11-17T04:32:09.833Z,1.83
2022-11-17T04:37:17.471Z,1.85
2022-11-17T04:42:20.623Z,2.35
2022-11-17T04:47:25.069Z,1.42
2022-11-17T04:52:29.928Z,2.20
2022-11-17T04:57:33.099Z,1.70
2022-11-17T05:02:37.418Z,1.60
2022-11-17T05:07:40.447Z,3.00
2022-11-17T05:13:06.121Z,2.10
2022-11-17T05:18:10.462Z,1.67
2022-11-17T05:23:30.976Z,2.28
2022-11-17T05:28:33.948Z,1.98
2022-11-17T05:33:38.547Z,1.67
2022-11-17T05:38:41.806Z,1.90
2022-11-17T05:43:45.086Z,2.15
2022-11-17T05:48:50.985Z,2.63
2022-11-17T05:53:54.014Z,2.70
2022-11-17T05:59:02.611Z,2.05
2022-11-17T06:04:08.999Z,1.80
2022-11-17T06:09:12.520Z,1.48
2022-11-17T06:14:15.569Z,1.60
2022-11-17T06:19:22.909Z,2.03
2022-11-17T06:24:26.050Z,4.68
2022-11-17T06:29:30.589Z,2.63
2022-11-17T06:34:35.403Z,1.70
2022-11-17T06:39:38.460Z,2.08
2022-11-17T06:44:41.404Z,2.20
2022-11-17T06:49:45.736Z,2.60
2022-11-17T06:54:48.776Z,3.58
2022-11-17T06:59:52.604Z,2.85
2022-11-17T07:04:57.025Z,2.83
2022-11-17T07:10:00.065Z,3.20
2022-11-17T07:15:03.145Z,3.70
2022-11-17T07:20:08.810Z,5.15
2022-11-17T07:25:12.644Z,3.92
2022-11-17T07:30:16.408Z,4.43
2022-11-17T07:35:21.551Z,4.95
2022-11-17T07:40:24.605Z,6.50
2022-11-17T07:45:31.745Z,5.60
2022-11-17T07:50:39.747Z,5.22
2022-11-17T07:55:42.837Z,6.82
2022-11-17T08:00:45.911Z,7.93
2022-11-17T08:05:50.343Z,6.47
2022-11-17T08:10:53.355Z,7.13
2022-11-17T08:15:57.236Z,4.82
2022-11-17T08:21:06.871Z,5.25
2022-11-17T08:26:11.493Z,5.03
2022-11-17T08:31:15.108Z,6.53
2022-11-17T08:36:19.467Z,6.20
2022-11-17T08:41:22.582Z,4.25
2022-11-17T08:46:27.098Z,3.90
2022-11-17T08:51:31.493Z,7.45
2022-11-17T08:56:34.494Z,12.82
2022-11-17T09:01:37.552Z,8.20
2022-11-17T09:06:41.981Z,8.68
2022-11-17T09:11:45.116Z,5.28
2022-11-17T09:16:48.151Z,5.57
2022-11-17T09:21:52.546Z,5.07
2022-11-17T09:26:57.384Z,5.28
2022-11-17T09:32:00.427Z,5.13
2022-11-17T09:37:04.819Z,4.47
2022-11-17T09:42:07.911Z,4.55
2022-11-17T09:47:20.294Z,5.10
2022-11-17T09:52:30.108Z,4.43
2022-11-17T09:57:39.124Z,4.80
2022-11-17T10:02:42.532Z,4.68
2022-11-17T10:07:51.179Z,16.75
2022-11-17T10:12:59.010Z,7.57
2022-11-17T10:18:02.099Z,7.95
2022-11-17T10:23:07.605Z,7.70
2022-11-17T10:28:24.740Z,8.02
2022-11-17T10:33:36.627Z,5.95
2022-11-17T10:38:45.911Z,5.45
2022-11-17T10:43:58.746Z,6.32
2022-11-17T10:49:04.904Z,5.35
2022-11-17T10:54:22.806Z,6.90
2022-11-17T10:59:29.548Z,4.80
2022-11-17T11:04:34.765Z,4.78
2022-11-17T11:09:45.626Z,4.90
2022-11-17T11:14:53.852Z,4.55
2022-11-17T11:19:57.915Z,2.92
2022-11-17T11:25:12.579Z,10.13
2022-11-17T11:30:21.017Z,6.03
2022-11-17T11:36:11.364Z,5.03
2022-11-17T11:41:51.785Z,5.80
2022-11-17T11:47:00.949Z,6.57
2022-11-17T11:52:07.023Z,10.10
2022-11-17T11:57:16.623Z,6.45
2022-11-17T12:02:29.188Z,5.93
2022-11-17T12:07:41.094Z,4.95
2022-11-17T12:12:47.461Z,12.25
2022-11-17T12:18:00.203Z,7.45
2022-11-17T12:23:13.082Z,7.80
2022-11-17T12:28:35.737Z,6.35
2022-11-17T12:34:21.088Z,5.03
2022-11-17T12:39:53.183Z,5.80
2022-11-17T12:45:11.908Z,6.53
2022-11-17T12:50:42.358Z,5.90
2022-11-17T12:56:03.945Z,3.95
2022-11-17T13:01:16.301Z,6.28
2022-11-17T13:06:34.813Z,5.20
2022-11-17T13:11:39.137Z,4.93
2022-11-17T13:16:48.159Z,4.38
2022-11-17T13:22:00.094Z,5.03
2022-11-17T13:27:04.329Z,4.30
2022-11-17T13:32:18.654Z,4.97
2022-11-17T13:37:24.304Z,5.53
2022-11-17T13:42:30.899Z,4.07
2022-11-17T13:47:46.720Z,4.45
2022-11-17T13:52:55.042Z,3.80
2022-11-17T13:58:00.361Z,13.10
2022-11-17T14:03:07.155Z,8.27
2022-11-17T14:08:21.749Z,10.30
2022-11-17T14:13:30.514Z,8.38
2022-11-17T14:18:37.700Z,6.65
2022-11-17T14:23:40.936Z,6.57
2022-11-17T14:28:43.932Z,6.68
2022-11-17T14:33:48.355Z,5.45
2022-11-17T14:38:51.451Z,5.97
2022-11-17T14:43:54.539Z,4.30
2022-11-17T14:48:58.963Z,4.18
2022-11-17T14:54:02.155Z,4.68
2022-11-17T14:59:05.221Z,5.15
2022-11-17T15:04:42.993Z,3.65
2022-11-17T15:09:38.273Z,2.50
2022-11-17T15:14:41.310Z,3.25
2022-11-17T15:19:45.744Z,4.03
2022-11-17T15:24:48.936Z,3.08
2022-11-17T15:29:51.910Z,3.40
2022-11-17T15:34:56.250Z,2.58
2022-11-17T15:39:59.307Z,3.40
2022-11-17T15:45:02.290Z,3.35
2022-11-17T15:50:07.783Z,2.80
2022-11-17T15:55:10.971Z,3.08
2022-11-17T16:00:15.301Z,3.05
2022-11-17T16:05:19.739Z,2.40
2022-11-17T16:10:22.945Z,6.63
2022-11-17T16:15:26.066Z,6.50
2022-11-17T16:20:30.515Z,5.57
2022-11-17T16:25:33.856Z,3.63
2022-11-17T16:30:37.222Z,4.78
2022-11-17T16:35:42.220Z,4.05
2022-11-17T16:40:45.409Z,3.10
2022-11-17T16:45:48.444Z,3.50
2022-11-17T16:50:52.892Z,4.53
2022-11-17T16:55:56.000Z,3.05
2022-11-17T17:00:59.042Z,5.28
2022-11-17T17:06:05.979Z,5.80
2022-11-17T17:11:10.586Z,6.30
2022-11-17T17:16:15.380Z,4.32
2022-11-17T17:21:20.898Z,3.90
2022-11-17T17:26:25.329Z,4.55
2022-11-17T17:31:33.306Z,3.85
2022-11-17T17:36:38.518Z,5.70
2022-11-17T17:41:43.438Z,5.47
2022-11-17T17:46:47.421Z,5.40
2022-11-17T17:51:51.996Z,3.95
2022-11-17T17:56:57.189Z,52.30
2022-11-17T18:02:00.213Z,64.15
2022-11-17T18:07:04.668Z,59.83
2022-11-17T18:12:07.792Z,53.42
2022-11-17T18:17:10.998Z,51.47
2022-11-17T18:22:15.362Z,57.40
2022-11-17T18:27:18.355Z,61.08
2022-11-17T18:32:21.339Z,54.22
2022-11-17T18:37:25.721Z,52.20
2022-11-17T18:42:28.776Z,51.03
2022-11-17T18:47:31.778Z,65.00
2022-11-17T18:52:37.068Z,46.00
2022-11-17T18:57:44.708Z,47.55
2022-11-17T19:02:48.219Z,40.35
2022-11-17T19:07:56.287Z,38.97
2022-11-17T19:12:59.560Z,39.22
2022-11-17T19:18:02.584Z,41.17
2022-11-17T19:23:07.928Z,35.42
2022-11-17T19:28:13.568Z,37.03
2022-11-17T19:33:16.542Z,40.83
2022-11-17T19:38:20.997Z,29.00
2022-11-17T19:43:23.988Z,31.98
2022-11-17T19:48:28.115Z,30.65
2022-11-17T19:53:32.489Z,28.65
2022-11-17T19:58:35.754Z,29.90
2022-11-17T20:03:38.874Z,26.15
2022-11-17T20:08:43.307Z,22.92
2022-11-17T20:13:46.957Z,26.00
2022-11-17T20:18:51.752Z,26.15
2022-11-17T20:23:56.911Z,27.35
2022-11-17T20:29:00.820Z,38.72
2022-11-17T20:34:05.631Z,26.58
2022-11-17T20:39:10.100Z,22.17
2022-11-17T20:44:24.670Z,21.15
2022-11-17T20:49:28.963Z,19.00
2022-11-17T20:54:33.336Z,20.92
2022-11-17T20:59:36.405Z,21.67
2022-11-17T21:04:39.487Z,20.35
2022-11-17T21:09:43.950Z,17.65
2022-11-17T21:14:47.016Z,22.63
2022-11-17T21:19:50.046Z,24.40
2022-11-17T21:24:55.545Z,17.65
2022-11-17T21:29:58.556Z,17.67
2022-11-17T21:35:01.572Z,18.88
2022-11-17T21:40:07.245Z,14.52
2022-11-17T21:45:11.239Z,17.77
2022-11-17T21:50:14.400Z,15.32
2022-11-17T21:55:18.777Z,11.27
2022-11-17T22:00:21.851Z,16.52
2022-11-17T22:05:25.348Z,15.43
2022-11-17T22:10:29.698Z,17.80
2022-11-17T22:15:32.708Z,17.05
2022-11-17T22:20:36.129Z,15.13
2022-11-17T22:25:47.519Z,13.52
2022-11-17T22:30:50.972Z,6.72
2022-11-17T22:35:54.025Z,7.35
2022-11-17T22:41:01.611Z,5.75
2022-11-17T22:46:07.903Z,5.60
2022-11-17T22:51:11.325Z,3.65
2022-11-17T22:56:15.705Z,4.50
2022-11-17T23:01:18.891Z,4.13
2022-11-17T23:06:22.591Z,2.63
2022-11-17T23:11:36.976Z,2.85
2022-11-17T23:16:41.143Z,2.45
2022-11-17T23:21:44.120Z,6.82
2022-11-17T23:26:48.493Z,2.08
2022-11-17T23:31:51.519Z,2.95
2022-11-17T23:36:57.326Z,3.08
2022-11-17T23:42:05.910Z,1.92
2022-11-17T23:47:08.945Z,1.15
2022-11-17T23:52:11.931Z,1.42
2022-11-17T23:57:16.391Z,1.00
